sensor_id;sensor_type;location;lat;lon;timestamp;temperature;humidity
2447;DHT22;26430;48.818;9.244;2022-12-29T00:01:33;8.20;99.90
2447;DHT22;26430;48.818;9.244;2022-12-29T00:03:59;8.20;99.90
2447;DHT22;26430;48.818;9.244;2022-12-29T00:06:25;8.30;99.90
2447;DHT22;26430;48.818;9.244;2022-12-29T00:08:51;8.30;99.90
2447;DHT22;26430;48.818;9.244;2022-12-29T00:11:19;8.30;99.90
2447;DHT22;26430;48.818;9.244;2022-12-29T00:13:45;8.40;99.90
2447;DHT22;26430;48.818;9.244;2022-12-29T00:16:32;8.40;99.90
2447;DHT22;26430;48.818;9.244;2022-12-29T00:18:58;8.40;99.90
2447;DHT22;26430;48.818;9.244;2022-12-29T00:21:24;8.40;99.90
2447;DHT22;26430;48.818;9.244;2022-12-29T00:24:13;8.40;99.90
2447;DHT22;26430;48.818;9.244;2022-12-29T00:29:46;8.50;99.90
2447;DHT22;26430;48.818;9.244;2022-12-29T00:32:37;8.50;99.90
2447;DHT22;26430;48.818;9.244;2022-12-29T00:35:27;8.50;99.90
2447;DHT22;26430;48.818;9.244;2022-12-29T00:37:56;8.50;99.90
2447;DHT22;26430;48.818;9.244;2022-12-29T00:40:42;8.50;99.90
2447;DHT22;26430;48.818;9.244;2022-12-29T00:43:26;8.60;99.90
2447;DHT22;26430;48.818;9.244;2022-12-29T00:46:10;8.60;99.90
2447;DHT22;26430;48.818;9.244;2022-12-29T00:48:35;8.60;99.90
2447;DHT22;26430;48.818;9.244;2022-12-29T00:51:19;8.70;99.90
2447;DHT22;26430;48.818;9.244;2022-12-29T00:53:45;8.70;99.90
2447;DHT22;26430;48.818;9.244;2022-12-29T00:56:11;8.80;99.90
2447;DHT22;26430;48.818;9.244;2022-12-29T00:58:37;8.90;99.90
2447;DHT22;26430;48.818;9.244;2022-12-29T01:01:05;8.90;99.90
2447;DHT22;26430;48.818;9.244;2022-12-29T01:03:32;9.00;99.90
2447;DHT22;26430;48.818;9.244;2022-12-29T01:06:00;9.00;99.90
2447;DHT22;26430;48.818;9.244;2022-12-29T01:08:29;9.10;99.90
2447;DHT22;26430;48.818;9.244;2022-12-29T01:13:24;9.20;99.90
2447;DHT22;26430;48.818;9.244;2022-12-29T01:15:54;9.30;99.90
2447;DHT22;26430;48.818;9.244;2022-12-29T01:18:20;9.30;99.90
2447;DHT22;26430;48.818;9.244;2022-12-29T01:20:46;9.30;99.90
2447;DHT22;26430;48.818;9.244;2022-12-29T01:23:11;9.40;99.90
2447;DHT22;26430;48.818;9.244;2022-12-29T01:25:37;9.30;99.90
2447;DHT22;26430;48.818;9.244;2022-12-29T01:28:03;9.30;99.90
2447;DHT22;26430;48.818;9.244;2022-12-29T01:30:28;9.30;99.90
2447;DHT22;26430;48.818;9.244;2022-12-29T01:32:54;9.40;99.90
2447;DHT22;26430;48.818;9.244;2022-12-29T01:35:20;9.30;99.90
2447;DHT22;26430;48.818;9.244;2022-12-29T01:37:45;9.30;99.90
2447;DHT22;26430;48.818;9.244;2022-12-29T01:40:11;9.30;99.90
2447;DHT22;26430;48.818;9.244;2022-12-29T01:42:37;9.40;99.90
2447;DHT22;26430;48.818;9.244;2022-12-29T01:45:09;9.30;99.90
2447;DHT22;26430;48.818;9.244;2022-12-29T01:47:36;9.40;99.90
2447;DHT22;26430;48.818;9.244;2022-12-29T01:55:26;9.50;99.90
2447;DHT22;26430;48.818;9.244;2022-12-29T01:57:53;9.60;99.90
2447;DHT22;26430;48.818;9.244;2022-12-29T02:00:21;9.70;99.90
2447;DHT22;26430;48.818;9.244;2022-12-29T02:02:54;9.70;99.90
2447;DHT22;26430;48.818;9.244;2022-12-29T02:05:36;9.70;99.90
2447;DHT22;26430;48.818;9.244;2022-12-29T02:08:04;9.60;99.90
2447;DHT22;26430;48.818;9.244;2022-12-29T02:10:31;9.50;99.90
2447;DHT22;26430;48.818;9.244;2022-12-29T02:12:58;9.60;99.90
2447;DHT22;26430;48.818;9.244;2022-12-29T02:16:01;9.60;99.90
2447;DHT22;26430;48.818;9.244;2022-12-29T02:24:37;9.70;99.90
2447;DHT22;26430;48.818;9.244;2022-12-29T02:33:21;9.90;99.90
2447;DHT22;26430;48.818;9.244;2022-12-29T02:36:01;10.10;99.90
2447;DHT22;26430;48.818;9.244;2022-12-29T02:41:22;10.00;99.90
2447;DHT22;26430;48.818;9.244;2022-12-29T02:45:20;10.00;99.90
2447;DHT22;26430;48.818;9.244;2022-12-29T02:50:23;10.00;99.90
2447;DHT22;26430;48.818;9.244;2022-12-29T02:53:11;10.00;99.90
2447;DHT22;26430;48.818;9.244;2022-12-29T02:55:38;10.00;99.90
2447;DHT22;26430;48.818;9.244;2022-12-29T02:58:19;10.10;99.90
2447;DHT22;26430;48.818;9.244;2022-12-29T03:06:58;10.40;99.90
2447;DHT22;26430;48.818;9.244;2022-12-29T03:09:36;10.40;99.90
2447;DHT22;26430;48.818;9.244;2022-12-29T03:12:33;10.60;99.90
2447;DHT22;26430;48.818;9.244;2022-12-29T03:15:46;10.60;99.90
2447;DHT22;26430;48.818;9.244;2022-12-29T03:21:38;10.80;99.90
2447;DHT22;26430;48.818;9.244;2022-12-29T03:24:26;10.80;99.90
2447;DHT22;26430;48.818;9.244;2022-12-29T03:26:55;10.80;99.90
2447;DHT22;26430;48.818;9.244;2022-12-29T03:29:24;10.80;99.90
2447;DHT22;26430;48.818;9.244;2022-12-29T03:31:51;10.80;99.90
2447;DHT22;26430;48.818;9.244;2022-12-29T03:34:19;10.80;99.90
2447;DHT22;26430;48.818;9.244;2022-12-29T03:36:53;10.80;99.90
2447;DHT22;26430;48.818;9.244;2022-12-29T03:39:22;10.90;99.90
2447;DHT22;26430;48.818;9.244;2022-12-29T03:41:52;11.00;99.90
2447;DHT22;26430;48.818;9.244;2022-12-29T03:44:21;11.00;99.90
2447;DHT22;26430;48.818;9.244;2022-12-29T03:46:46;11.10;99.90
2447;DHT22;26430;48.818;9.244;2022-12-29T03:49:12;11.00;99.90
2447;DHT22;26430;48.818;9.244;2022-12-29T03:51:37;11.00;99.90
2447;DHT22;26430;48.818;9.244;2022-12-29T03:54:03;11.00;99.90
2447;DHT22;26430;48.818;9.244;2022-12-29T03:56:29;11.00;99.90
2447;DHT22;26430;48.818;9.244;2022-12-29T03:58:54;11.00;99.90
2447;DHT22;26430;48.818;9.244;2022-12-29T04:01:20;11.10;99.90
2447;DHT22;26430;48.818;9.244;2022-12-29T04:03:46;11.20;99.90
2447;DHT22;26430;48.818;9.244;2022-12-29T04:06:11;11.20;99.90
2447;DHT22;26430;48.818;9.244;2022-12-29T04:08:37;11.20;99.90
2447;DHT22;26430;48.818;9.244;2022-12-29T04:11:03;11.30;99.90
2447;DHT22;26430;48.818;9.244;2022-12-29T04:13:28;11.30;99.90
2447;DHT22;26430;48.818;9.244;2022-12-29T04:15:54;11.50;99.90
2447;DHT22;26430;48.818;9.244;2022-12-29T04:18:20;11.40;99.90
2447;DHT22;26430;48.818;9.244;2022-12-29T04:20:45;11.40;99.90
2447;DHT22;26430;48.818;9.244;2022-12-29T04:23:28;11.40;99.90
2447;DHT22;26430;48.818;9.244;2022-12-29T04:25:55;11.50;99.90
2447;DHT22;26430;48.818;9.244;2022-12-29T04:28:20;11.50;99.90
2447;DHT22;26430;48.818;9.244;2022-12-29T04:30:47;11.50;99.90
2447;DHT22;26430;48.818;9.244;2022-12-29T04:33:13;11.50;99.90
2447;DHT22;26430;48.818;9.244;2022-12-29T04:35:38;11.50;99.90
2447;DHT22;26430;48.818;9.244;2022-12-29T04:38:04;11.50;99.90
2447;DHT22;26430;48.818;9.244;2022-12-29T04:40:30;11.60;99.90
2447;DHT22;26430;48.818;9.244;2022-12-29T04:42:55;11.50;99.90
2447;DHT22;26430;48.818;9.244;2022-12-29T04:45:21;11.50;99.90
2447;DHT22;26430;48.818;9.244;2022-12-29T04:47:47;11.40;99.90
2447;DHT22;26430;48.818;9.244;2022-12-29T04:50:13;11.50;99.90
2447;DHT22;26430;48.818;9.244;2022-12-29T04:52:38;11.50;99.90
2447;DHT22;26430;48.818;9.244;2022-12-29T04:55:05;11.50;99.90
2447;DHT22;26430;48.818;9.244;2022-12-29T04:57:31;11.50;99.90
2447;DHT22;26430;48.818;9.244;2022-12-29T04:59:56;11.50;99.90
2447;DHT22;26430;48.818;9.244;2022-12-29T05:02:22;11.50;99.90
2447;DHT22;26430;48.818;9.244;2022-12-29T05:04:48;11.50;99.90
2447;DHT22;26430;48.818;9.244;2022-12-29T05:07:13;11.60;99.90
2447;DHT22;26430;48.818;9.244;2022-12-29T05:09:39;11.50;99.90
2447;DHT22;26430;48.818;9.244;2022-12-29T05:12:05;11.50;99.90
2447;DHT22;26430;48.818;9.244;2022-12-29T05:14:31;11.40;99.90
2447;DHT22;26430;48.818;9.244;2022-12-29T05:16:57;11.60;99.90
2447;DHT22;26430;48.818;9.244;2022-12-29T05:19:23;11.50;99.90
2447;DHT22;26430;48.818;9.244;2022-12-29T05:21:48;11.50;99.90
2447;DHT22;26430;48.818;9.244;2022-12-29T05:24:14;11.70;99.90
2447;DHT22;26430;48.818;9.244;2022-12-29T05:26:41;11.60;99.90
2447;DHT22;26430;48.818;9.244;2022-12-29T05:29:06;11.60;99.90
2447;DHT22;26430;48.818;9.244;2022-12-29T05:31:32;11.60;99.90
2447;DHT22;26430;48.818;9.244;2022-12-29T05:33:58;11.60;99.90
2447;DHT22;26430;48.818;9.244;2022-12-29T05:36:24;11.50;99.90
2447;DHT22;26430;48.818;9.244;2022-12-29T05:38:50;11.50;99.90
2447;DHT22;26430;48.818;9.244;2022-12-29T05:41:15;11.60;99.90
2447;DHT22;26430;48.818;9.244;2022-12-29T05:43:41;11.70;99.90
2447;DHT22;26430;48.818;9.244;2022-12-29T05:46:06;11.70;99.90
2447;DHT22;26430;48.818;9.244;2022-12-29T05:48:32;11.70;99.90
2447;DHT22;26430;48.818;9.244;2022-12-29T05:50:58;11.60;99.90
2447;DHT22;26430;48.818;9.244;2022-12-29T05:53:23;11.50;99.90
2447;DHT22;26430;48.818;9.244;2022-12-29T05:55:49;11.60;99.90
2447;DHT22;26430;48.818;9.244;2022-12-29T05:58:16;11.60;99.90
2447;DHT22;26430;48.818;9.244;2022-12-29T06:00:42;11.60;99.90
2447;DHT22;26430;48.818;9.244;2022-12-29T06:03:08;11.60;99.90
2447;DHT22;26430;48.818;9.244;2022-12-29T06:05:33;11.60;99.90
2447;DHT22;26430;48.818;9.244;2022-12-29T06:07:59;11.50;99.90
2447;DHT22;26430;48.818;9.244;2022-12-29T06:10:24;11.50;99.90
2447;DHT22;26430;48.818;9.244;2022-12-29T06:12:50;11.50;99.90
2447;DHT22;26430;48.818;9.244;2022-12-29T06:15:17;11.40;99.90
2447;DHT22;26430;48.818;9.244;2022-12-29T06:17:42;11.50;99.90
2447;DHT22;26430;48.818;9.244;2022-12-29T06:20:09;11.60;99.90
2447;DHT22;26430;48.818;9.244;2022-12-29T06:22:35;11.60;99.90
2447;DHT22;26430;48.818;9.244;2022-12-29T06:25:01;11.50;99.90
2447;DHT22;26430;48.818;9.244;2022-12-29T06:27:27;11.60;99.90
2447;DHT22;26430;48.818;9.244;2022-12-29T06:29:53;11.60;99.90
2447;DHT22;26430;48.818;9.244;2022-12-29T06:32:19;11.50;99.90
2447;DHT22;26430;48.818;9.244;2022-12-29T06:34:44;11.40;99.90
2447;DHT22;26430;48.818;9.244;2022-12-29T06:37:10;11.40;99.90
2447;DHT22;26430;48.818;9.244;2022-12-29T06:39:37;11.40;99.90
2447;DHT22;26430;48.818;9.244;2022-12-29T06:42:02;11.30;99.90
2447;DHT22;26430;48.818;9.244;2022-12-29T06:44:28;11.30;99.90
2447;DHT22;26430;48.818;9.244;2022-12-29T06:46:54;11.20;99.90
2447;DHT22;26430;48.818;9.244;2022-12-29T06:49:20;11.20;99.90
2447;DHT22;26430;48.818;9.244;2022-12-29T06:51:46;11.00;99.90
2447;DHT22;26430;48.818;9.244;2022-12-29T06:54:11;11.10;99.90
2447;DHT22;26430;48.818;9.244;2022-12-29T06:56:37;11.10;99.90
2447;DHT22;26430;48.818;9.244;2022-12-29T06:59:03;11.00;99.90
2447;DHT22;26430;48.818;9.244;2022-12-29T07:01:28;10.80;99.90
2447;DHT22;26430;48.818;9.244;2022-12-29T07:03:54;10.80;99.90
2447;DHT22;26430;48.818;9.244;2022-12-29T07:06:20;10.80;99.90
2447;DHT22;26430;48.818;9.244;2022-12-29T07:08:46;10.70;99.90
2447;DHT22;26430;48.818;9.244;2022-12-29T07:11:13;10.80;99.90
2447;DHT22;26430;48.818;9.244;2022-12-29T07:13:38;10.70;99.90
2447;DHT22;26430;48.818;9.244;2022-12-29T07:16:08;10.70;99.90
2447;DHT22;26430;48.818;9.244;2022-12-29T07:18:34;10.70;99.90
2447;DHT22;26430;48.818;9.244;2022-12-29T07:20:59;10.80;99.90
2447;DHT22;26430;48.818;9.244;2022-12-29T07:23:25;10.80;99.90
2447;DHT22;26430;48.818;9.244;2022-12-29T07:26:02;10.70;99.90
2447;DHT22;26430;48.818;9.244;2022-12-29T07:28:28;10.80;99.90
2447;DHT22;26430;48.818;9.244;2022-12-29T07:30:53;10.70;99.90
2447;DHT22;26430;48.818;9.244;2022-12-29T07:33:19;10.80;99.90
2447;DHT22;26430;48.818;9.244;2022-12-29T07:35:44;10.80;99.90
2447;DHT22;26430;48.818;9.244;2022-12-29T07:38:10;10.80;99.90
2447;DHT22;26430;48.818;9.244;2022-12-29T07:40:36;10.80;99.90
2447;DHT22;26430;48.818;9.244;2022-12-29T07:43:02;10.90;99.90
2447;DHT22;26430;48.818;9.244;2022-12-29T07:45:27;11.00;99.90
2447;DHT22;26430;48.818;9.244;2022-12-29T07:47:53;10.90;99.90
2447;DHT22;26430;48.818;9.244;2022-12-29T07:50:19;11.00;99.90
2447;DHT22;26430;48.818;9.244;2022-12-29T07:52:44;11.10;99.90
2447;DHT22;26430;48.818;9.244;2022-12-29T07:55:12;11.10;99.90
2447;DHT22;26430;48.818;9.244;2022-12-29T07:57:37;11.10;99.90
2447;DHT22;26430;48.818;9.244;2022-12-29T08:00:04;11.10;99.90
2447;DHT22;26430;48.818;9.244;2022-12-29T08:02:29;11.10;99.90
2447;DHT22;26430;48.818;9.244;2022-12-29T08:04:55;11.20;99.90
2447;DHT22;26430;48.818;9.244;2022-12-29T08:07:21;11.20;99.90
2447;DHT22;26430;48.818;9.244;2022-12-29T08:09:46;11.30;99.90
2447;DHT22;26430;48.818;9.244;2022-12-29T08:12:12;11.30;99.90
2447;DHT22;26430;48.818;9.244;2022-12-29T08:14:38;11.40;99.90
2447;DHT22;26430;48.818;9.244;2022-12-29T08:17:05;11.60;99.90
2447;DHT22;26430;48.818;9.244;2022-12-29T08:19:30;11.50;99.90
2447;DHT22;26430;48.818;9.244;2022-12-29T08:21:56;11.50;99.90
2447;DHT22;26430;48.818;9.244;2022-12-29T08:24:22;11.60;99.90
2447;DHT22;26430;48.818;9.244;2022-12-29T08:26:47;11.60;99.90
2447;DHT22;26430;48.818;9.244;2022-12-29T08:29:13;11.50;99.90
2447;DHT22;26430;48.818;9.244;2022-12-29T08:31:38;11.70;99.90
2447;DHT22;26430;48.818;9.244;2022-12-29T08:34:04;11.60;99.90
2447;DHT22;26430;48.818;9.244;2022-12-29T08:36:31;11.60;99.90
2447;DHT22;26430;48.818;9.244;2022-12-29T08:38:56;11.70;99.90
2447;DHT22;26430;48.818;9.244;2022-12-29T08:41:22;11.70;99.90
2447;DHT22;26430;48.818;9.244;2022-12-29T08:43:49;11.70;99.90
2447;DHT22;26430;48.818;9.244;2022-12-29T08:46:15;11.70;99.90
2447;DHT22;26430;48.818;9.244;2022-12-29T08:48:42;11.70;99.90
2447;DHT22;26430;48.818;9.244;2022-12-29T08:51:08;11.70;99.90
2447;DHT22;26430;48.818;9.244;2022-12-29T08:53:34;11.70;99.90
2447;DHT22;26430;48.818;9.244;2022-12-29T08:56:00;11.70;99.90
2447;DHT22;26430;48.818;9.244;2022-12-29T08:58:27;11.70;99.90
2447;DHT22;26430;48.818;9.244;2022-12-29T09:00:56;11.70;99.90
2447;DHT22;26430;48.818;9.244;2022-12-29T09:03:23;11.70;99.90
2447;DHT22;26430;48.818;9.244;2022-12-29T09:05:53;11.90;99.90
2447;DHT22;26430;48.818;9.244;2022-12-29T09:08:20;11.90;99.90
2447;DHT22;26430;48.818;9.244;2022-12-29T09:10:46;11.90;99.90
2447;DHT22;26430;48.818;9.244;2022-12-29T09:13:12;12.00;99.90
2447;DHT22;26430;48.818;9.244;2022-12-29T09:15:38;12.00;99.90
2447;DHT22;26430;48.818;9.244;2022-12-29T09:18:05;12.00;99.90
2447;DHT22;26430;48.818;9.244;2022-12-29T09:20:31;12.00;99.90
2447;DHT22;26430;48.818;9.244;2022-12-29T09:22:57;11.90;99.90
2447;DHT22;26430;48.818;9.244;2022-12-29T09:25:22;12.10;99.90
2447;DHT22;26430;48.818;9.244;2022-12-29T09:27:50;12.00;99.90
2447;DHT22;26430;48.818;9.244;2022-12-29T09:30:18;11.90;99.90
2447;DHT22;26430;48.818;9.244;2022-12-29T09:32:44;12.00;99.90
2447;DHT22;26430;48.818;9.244;2022-12-29T09:35:09;12.10;99.90
2447;DHT22;26430;48.818;9.244;2022-12-29T09:37:35;12.10;99.90
2447;DHT22;26430;48.818;9.244;2022-12-29T09:40:01;12.10;99.90
2447;DHT22;26430;48.818;9.244;2022-12-29T09:47:43;12.30;99.90
2447;DHT22;26430;48.818;9.244;2022-12-29T09:52:44;12.40;99.90
2447;DHT22;26430;48.818;9.244;2022-12-29T09:55:18;12.40;99.90
2447;DHT22;26430;48.818;9.244;2022-12-29T10:00:21;12.60;99.90
2447;DHT22;26430;48.818;9.244;2022-12-29T10:02:52;12.70;99.90
2447;DHT22;26430;48.818;9.244;2022-12-29T10:05:25;12.80;99.90
2447;DHT22;26430;48.818;9.244;2022-12-29T10:10:56;12.80;99.90
2447;DHT22;26430;48.818;9.244;2022-12-29T10:16:33;12.80;99.90
2447;DHT22;26430;48.818;9.244;2022-12-29T10:24:12;12.80;99.90
2447;DHT22;26430;48.818;9.244;2022-12-29T10:26:41;12.80;99.90
2447;DHT22;26430;48.818;9.244;2022-12-29T10:29:18;12.90;99.90
2447;DHT22;26430;48.818;9.244;2022-12-29T10:34:38;12.90;99.90
2447;DHT22;26430;48.818;9.244;2022-12-29T10:37:18;12.80;99.90
2447;DHT22;26430;48.818;9.244;2022-12-29T10:39:54;12.80;99.90
2447;DHT22;26430;48.818;9.244;2022-12-29T10:42:27;12.80;99.90
2447;DHT22;26430;48.818;9.244;2022-12-29T10:44:54;12.80;99.90
2447;DHT22;26430;48.818;9.244;2022-12-29T10:47:29;13.00;99.90
2447;DHT22;26430;48.818;9.244;2022-12-29T10:49:56;13.10;99.90
2447;DHT22;26430;48.818;9.244;2022-12-29T10:52:25;13.10;99.90
2447;DHT22;26430;48.818;9.244;2022-12-29T10:55:00;13.20;99.90
2447;DHT22;26430;48.818;9.244;2022-12-29T10:57:37;13.30;99.90
2447;DHT22;26430;48.818;9.244;2022-12-29T11:00:19;13.40;99.90
2447;DHT22;26430;48.818;9.244;2022-12-29T11:08:22;13.80;99.90
2447;DHT22;26430;48.818;9.244;2022-12-29T11:11:07;13.80;99.90
2447;DHT22;26430;48.818;9.244;2022-12-29T11:13:46;13.80;99.90
2447;DHT22;26430;48.818;9.244;2022-12-29T11:16:12;13.90;99.90
2447;DHT22;26430;48.818;9.244;2022-12-29T11:18:40;13.80;99.90
2447;DHT22;26430;48.818;9.244;2022-12-29T11:23:59;13.80;99.90
2447;DHT22;26430;48.818;9.244;2022-12-29T11:26:26;13.80;99.90
2447;DHT22;26430;48.818;9.244;2022-12-29T11:29:21;13.80;99.90
2447;DHT22;26430;48.818;9.244;2022-12-29T11:31:49;13.80;99.90
2447;DHT22;26430;48.818;9.244;2022-12-29T11:36:51;13.70;99.90
2447;DHT22;26430;48.818;9.244;2022-12-29T11:39:33;13.70;99.90
2447;DHT22;26430;48.818;9.244;2022-12-29T11:42:00;13.70;99.90
2447;DHT22;26430;48.818;9.244;2022-12-29T11:44:35;13.60;99.90
2447;DHT22;26430;48.818;9.244;2022-12-29T11:47:02;13.60;99.90
2447;DHT22;26430;48.818;9.244;2022-12-29T11:49:27;13.50;99.90
2447;DHT22;26430;48.818;9.244;2022-12-29T11:51:54;13.40;99.90
2447;DHT22;26430;48.818;9.244;2022-12-29T11:54:32;13.30;99.90
2447;DHT22;26430;48.818;9.244;2022-12-29T11:57:12;13.00;99.90
2447;DHT22;26430;48.818;9.244;2022-12-29T11:59:41;12.70;99.90
2447;DHT22;26430;48.818;9.244;2022-12-29T12:04:45;12.30;99.90
2447;DHT22;26430;48.818;9.244;2022-12-29T12:10:05;12.10;99.90
2447;DHT22;26430;48.818;9.244;2022-12-29T12:13:08;12.00;99.90
2447;DHT22;26430;48.818;9.244;2022-12-29T12:15:44;11.90;99.90
2447;DHT22;26430;48.818;9.244;2022-12-29T12:18:30;11.90;99.90
2447;DHT22;26430;48.818;9.244;2022-12-29T12:21:05;12.00;99.90
2447;DHT22;26430;48.818;9.244;2022-12-29T12:24:02;12.00;99.90
2447;DHT22;26430;48.818;9.244;2022-12-29T12:26:34;12.20;99.90
2447;DHT22;26430;48.818;9.244;2022-12-29T12:29:20;12.20;99.90
2447;DHT22;26430;48.818;9.244;2022-12-29T12:34:36;12.50;99.90
2447;DHT22;26430;48.818;9.244;2022-12-29T12:52:58;12.70;99.90
2447;DHT22;26430;48.818;9.244;2022-12-29T13:03:45;12.80;99.90
2447;DHT22;26430;48.818;9.244;2022-12-29T13:11:52;12.90;99.90
2447;DHT22;26430;48.818;9.244;2022-12-29T13:14:26;12.90;99.90
2447;DHT22;26430;48.818;9.244;2022-12-29T13:19:35;12.90;99.90
2447;DHT22;26430;48.818;9.244;2022-12-29T13:22:21;13.00;99.90
2447;DHT22;26430;48.818;9.244;2022-12-29T13:27:37;13.10;99.90
2447;DHT22;26430;48.818;9.244;2022-12-29T13:30:15;13.10;99.90
2447;DHT22;26430;48.818;9.244;2022-12-29T13:40:58;12.60;99.90
2447;DHT22;26430;48.818;9.244;2022-12-29T13:43:27;12.60;99.90
2447;DHT22;26430;48.818;9.244;2022-12-29T13:46:15;12.50;99.90
2447;DHT22;26430;48.818;9.244;2022-12-29T13:48:49;12.50;99.90
2447;DHT22;26430;48.818;9.244;2022-12-29T13:51:16;12.50;99.90
2447;DHT22;26430;48.818;9.244;2022-12-29T13:54:07;12.50;99.90
2447;DHT22;26430;48.818;9.244;2022-12-29T13:56:39;12.50;99.90
2447;DHT22;26430;48.818;9.244;2022-12-29T13:59:28;12.50;99.90
2447;DHT22;26430;48.818;9.244;2022-12-29T14:02:21;12.40;99.90
2447;DHT22;26430;48.818;9.244;2022-12-29T14:04:58;12.40;99.90
2447;DHT22;26430;48.818;9.244;2022-12-29T14:07:25;12.30;99.90
2447;DHT22;26430;48.818;9.244;2022-12-29T14:09:53;12.40;99.90
2447;DHT22;26430;48.818;9.244;2022-12-29T14:12:26;12.30;99.90
2447;DHT22;26430;48.818;9.244;2022-12-29T14:14:53;12.30;99.90
2447;DHT22;26430;48.818;9.244;2022-12-29T14:17:20;12.30;99.90
2447;DHT22;26430;48.818;9.244;2022-12-29T14:19:46;12.30;99.90
2447;DHT22;26430;48.818;9.244;2022-12-29T14:22:24;12.30;99.90
2447;DHT22;26430;48.818;9.244;2022-12-29T14:24:50;12.30;99.90
2447;DHT22;26430;48.818;9.244;2022-12-29T14:29:46;12.30;99.90
2447;DHT22;26430;48.818;9.244;2022-12-29T14:34:51;12.30;99.90
2447;DHT22;26430;48.818;9.244;2022-12-29T14:42:38;12.30;99.90
2447;DHT22;26430;48.818;9.244;2022-12-29T14:45:06;12.30;99.90
2447;DHT22;26430;48.818;9.244;2022-12-29T14:47:40;12.20;99.90
2447;DHT22;26430;48.818;9.244;2022-12-29T14:52:53;12.20;99.90
2447;DHT22;26430;48.818;9.244;2022-12-29T14:58:02;12.20;99.90
2447;DHT22;26430;48.818;9.244;2022-12-29T15:00:36;12.20;99.90
2447;DHT22;26430;48.818;9.244;2022-12-29T15:05:49;12.20;99.90
2447;DHT22;26430;48.818;9.244;2022-12-29T15:08:18;12.20;99.90
2447;DHT22;26430;48.818;9.244;2022-12-29T15:11:11;12.20;99.90
2447;DHT22;26430;48.818;9.244;2022-12-29T15:13:41;12.10;99.90
2447;DHT22;26430;48.818;9.244;2022-12-29T15:18:51;12.10;99.90
2447;DHT22;26430;48.818;9.244;2022-12-29T15:21:21;12.00;99.90
2447;DHT22;26430;48.818;9.244;2022-12-29T15:23:48;12.00;99.90
2447;DHT22;26430;48.818;9.244;2022-12-29T15:26:14;12.00;99.90
2447;DHT22;26430;48.818;9.244;2022-12-29T15:28:47;12.00;99.90
2447;DHT22;26430;48.818;9.244;2022-12-29T15:31:21;12.00;99.90
2447;DHT22;26430;48.818;9.244;2022-12-29T15:33:49;12.00;99.90
2447;DHT22;26430;48.818;9.244;2022-12-29T15:36:27;12.10;99.90
2447;DHT22;26430;48.818;9.244;2022-12-29T15:38:53;12.00;99.90
2447;DHT22;26430;48.818;9.244;2022-12-29T15:41:30;12.10;99.90
2447;DHT22;26430;48.818;9.244;2022-12-29T15:44:39;12.00;99.90
2447;DHT22;26430;48.818;9.244;2022-12-29T15:47:11;12.10;99.90
2447;DHT22;26430;48.818;9.244;2022-12-29T15:49:38;12.10;99.90
2447;DHT22;26430;48.818;9.244;2022-12-29T15:52:10;12.10;99.90
2447;DHT22;26430;48.818;9.244;2022-12-29T15:54:36;11.90;99.90
2447;DHT22;26430;48.818;9.244;2022-12-29T15:57:03;11.40;99.90
2447;DHT22;26430;48.818;9.244;2022-12-29T15:59:33;11.10;99.90
2447;DHT22;26430;48.818;9.244;2022-12-29T16:02:00;10.90;99.90
2447;DHT22;26430;48.818;9.244;2022-12-29T16:04:30;10.70;99.90
2447;DHT22;26430;48.818;9.244;2022-12-29T16:07:03;10.50;99.90
2447;DHT22;26430;48.818;9.244;2022-12-29T16:09:41;10.40;99.90
2447;DHT22;26430;48.818;9.244;2022-12-29T16:14:43;10.40;99.90
2447;DHT22;26430;48.818;9.244;2022-12-29T16:17:14;10.50;99.90
2447;DHT22;26430;48.818;9.244;2022-12-29T16:19:43;10.50;99.90
2447;DHT22;26430;48.818;9.244;2022-12-29T16:22:26;10.40;99.90
2447;DHT22;26430;48.818;9.244;2022-12-29T16:24:56;10.50;99.90
2447;DHT22;26430;48.818;9.244;2022-12-29T16:27:28;10.40;99.90
2447;DHT22;26430;48.818;9.244;2022-12-29T16:29:56;10.60;99.90
2447;DHT22;26430;48.818;9.244;2022-12-29T16:32:27;10.40;99.90
2447;DHT22;26430;48.818;9.244;2022-12-29T16:35:11;10.50;99.90
2447;DHT22;26430;48.818;9.244;2022-12-29T16:37:37;10.50;99.90
2447;DHT22;26430;48.818;9.244;2022-12-29T16:42:48;10.60;99.90
2447;DHT22;26430;48.818;9.244;2022-12-29T16:50:36;10.70;99.90
2447;DHT22;26430;48.818;9.244;2022-12-29T16:53:03;10.60;99.90
2447;DHT22;26430;48.818;9.244;2022-12-29T16:55:30;10.40;99.90
2447;DHT22;26430;48.818;9.244;2022-12-29T16:57:57;10.40;99.90
2447;DHT22;26430;48.818;9.244;2022-12-29T17:00:26;10.50;99.90
2447;DHT22;26430;48.818;9.244;2022-12-29T17:02:58;10.70;99.90
2447;DHT22;26430;48.818;9.244;2022-12-29T17:05:24;10.80;99.90
2447;DHT22;26430;48.818;9.244;2022-12-29T17:07:51;10.80;99.90
2447;DHT22;26430;48.818;9.244;2022-12-29T17:10:18;10.80;99.90
2447;DHT22;26430;48.818;9.244;2022-12-29T17:12:46;10.60;99.90
2447;DHT22;26430;48.818;9.244;2022-12-29T17:15:24;10.50;99.90
2447;DHT22;26430;48.818;9.244;2022-12-29T17:17:53;10.30;99.90
2447;DHT22;26430;48.818;9.244;2022-12-29T17:20:22;10.10;99.90
2447;DHT22;26430;48.818;9.244;2022-12-29T17:22:49;10.10;99.90
2447;DHT22;26430;48.818;9.244;2022-12-29T17:25:19;10.00;99.90
2447;DHT22;26430;48.818;9.244;2022-12-29T17:27:48;9.80;99.90
2447;DHT22;26430;48.818;9.244;2022-12-29T17:30:18;9.80;99.90
2447;DHT22;26430;48.818;9.244;2022-12-29T17:32:53;9.90;99.90
2447;DHT22;26430;48.818;9.244;2022-12-29T17:35:21;10.00;99.90
2447;DHT22;26430;48.818;9.244;2022-12-29T17:37:48;10.00;99.90
2447;DHT22;26430;48.818;9.244;2022-12-29T17:40:19;9.80;99.90
2447;DHT22;26430;48.818;9.244;2022-12-29T17:42:47;9.70;99.90
2447;DHT22;26430;48.818;9.244;2022-12-29T17:45:16;9.80;99.90
2447;DHT22;26430;48.818;9.244;2022-12-29T17:47:42;9.90;99.90
2447;DHT22;26430;48.818;9.244;2022-12-29T17:50:13;10.00;99.90
2447;DHT22;26430;48.818;9.244;2022-12-29T17:52:39;9.80;99.90
2447;DHT22;26430;48.818;9.244;2022-12-29T17:55:05;9.80;99.90
2447;DHT22;26430;48.818;9.244;2022-12-29T17:57:31;9.90;99.90
2447;DHT22;26430;48.818;9.244;2022-12-29T17:59:56;9.90;99.90
2447;DHT22;26430;48.818;9.244;2022-12-29T18:02:26;9.90;99.90
2447;DHT22;26430;48.818;9.244;2022-12-29T18:04:52;9.90;99.90
2447;DHT22;26430;48.818;9.244;2022-12-29T18:07:18;9.70;99.90
2447;DHT22;26430;48.818;9.244;2022-12-29T18:09:43;9.60;99.90
2447;DHT22;26430;48.818;9.244;2022-12-29T18:14:50;9.70;99.90
2447;DHT22;26430;48.818;9.244;2022-12-29T18:17:15;9.70;99.90
2447;DHT22;26430;48.818;9.244;2022-12-29T18:19:41;9.70;99.90
2447;DHT22;26430;48.818;9.244;2022-12-29T18:22:07;9.60;99.90
2447;DHT22;26430;48.818;9.244;2022-12-29T18:24:33;9.40;99.90
2447;DHT22;26430;48.818;9.244;2022-12-29T18:26:59;9.40;99.90
2447;DHT22;26430;48.818;9.244;2022-12-29T18:29:24;9.30;99.90
2447;DHT22;26430;48.818;9.244;2022-12-29T18:31:50;9.30;99.90
2447;DHT22;26430;48.818;9.244;2022-12-29T18:34:16;9.20;99.90
2447;DHT22;26430;48.818;9.244;2022-12-29T18:36:42;9.20;99.90
2447;DHT22;26430;48.818;9.244;2022-12-29T18:39:08;9.20;99.90
2447;DHT22;26430;48.818;9.244;2022-12-29T18:41:34;9.20;99.90
2447;DHT22;26430;48.818;9.244;2022-12-29T18:44:00;9.10;99.90
2447;DHT22;26430;48.818;9.244;2022-12-29T18:46:26;9.20;99.90